Time;durP1;ratioP1;P1;durP2;ratioP2;P2;SDS_P1;SDS_P2;PMS_P1;PMS_P2;Temp;Humidity;BMP_temperature;BMP_pressure;BME280_temperature;BME280_humidity;BME280_pressure;Samples;Min_cycle;Max_cycle;Signal;HPM_P1;HPM_P2
2022/03/19 00:01:26;;;;;;;;;;;;;;;;;;4981396;28;2047;-69
2022/03/19 00:03:52;;;;;;;;;;;;;;;;;;4980957;28;1697;-69
2022/03/19 00:06:17;;;;;;;;;;;;;;;;;;4979863;28;1534;-68
2022/03/19 00:08:42;;;;;;;;;;;;;;;;;;4981040;28;1552;-68
2022/03/19 00:11:08;;;;;;;;;;;;;;;;;;4981496;28;1253;-68
2022/03/19 00:13:33;;;;;;;;;;;;;;;;;;4981510;28;1248;-69
2022/03/19 00:15:58;;;;;;;;;;;;;;;;;;4979426;28;1530;-69
2022/03/19 00:18:24;;;;;;;;;;;;;;;;;;4981014;28;1527;-70
2022/03/19 00:20:50;;;;;;;;;;;;;;;;;;4981569;28;1262;-70
2022/03/19 00:23:15;;;;;;;;;;;;;;;;;;4980682;28;1962;-69
2022/03/19 00:25:40;;;;;;;;;;;;;;;;;;4981179;28;1307;-70
2022/03/19 00:28:07;;;;;;;;;;;;;;;;;;4980048;28;1527;-68
2022/03/19 00:30:32;;;;;;;;;;;;;;;;;;4980336;28;1495;-68
2022/03/19 00:32:57;;;;;;;;;;;;;;;;;;4980279;28;1543;-69
2022/03/19 00:35:23;;;;;;;;;;;;;;;;;;4979915;28;1451;-69
2022/03/19 00:37:49;;;;;;;;;;;;;;;;;;4978982;28;1578;-69
2022/03/19 00:40:15;;;;;;;;;;;;;;;;;;4981135;28;1289;-68
2022/03/19 00:42:41;;;;;;;;;;;;;;;;;;4980308;28;1953;-69
2022/03/19 00:45:07;;;;;;;;;;;;;;;;;;4980344;28;1535;-68
2022/03/19 00:47:32;;;;;;;;;;;;;;;;;;4980871;28;1514;-68
2022/03/19 00:49:57;;;;;;;;;;;;;;;;;;4981061;28;1328;-69
2022/03/19 00:52:22;;;;;;;;;;;;;;;;;;4980924;28;1547;-68
2022/03/19 00:54:47;;;;;;;;;;;;;;;;;;4981105;28;1277;-69
2022/03/19 00:57:13;;;;;;;;;;;;;;;;;;4979672;28;1514;-68
2022/03/19 00:59:38;;;;;;;;;;;;;;;;;;4980954;28;1282;-68
2022/03/19 01:02:03;;;;;;;;;;;;;;;;;;4980565;28;1886;-69
2022/03/19 01:04:28;;;;;;;;;;;;;;;;;;4980286;28;1586;-68
2022/03/19 01:06:54;;;;;;;;;;;;;;;;;;4979486;28;1570;-69
2022/03/19 01:09:19;;;;;;;;;;;;;;;;;;4979740;28;1518;-69
2022/03/19 01:11:44;;;;;;;;;;;;;;;;;;4979812;28;1534;-68
2022/03/19 01:14:09;;;;;;;;;;;;;;;;;;4983904;28;1468;-68
2022/03/19 01:16:34;;;;;;;;;;;;;;;;;;4983706;28;1479;-69
2022/03/19 01:18:59;;;;;;;;;;;;;;;;;;4983756;28;1567;-69
2022/03/19 01:21:25;;;;;;;;;;;;;;;;;;4984739;28;1886;-69
2022/03/19 01:23:50;;;;;;;;;;;;;;;;;;4984329;28;1524;-69
2022/03/19 01:26:15;;;;;;;;;;;;;;;;;;4982943;28;1563;-69
2022/03/19 01:28:41;;;;;;;;;;;;;;;;;;4982767;28;1550;-69
2022/03/19 01:31:06;;;;;;;;;;;;;;;;;;4983122;28;1483;-69
2022/03/19 01:33:31;;;;;;;;;;;;;;;;;;4983405;28;1582;-69
2022/03/19 01:35:57;;;;;;;;;;;;;;;;;;4983639;28;1389;-69
2022/03/19 01:38:22;;;;;;;;;;;;;;;;;;4982169;28;1557;-69
2022/03/19 01:40:47;;;;;;;;;;;;;;;;;;4983474;28;1476;-69
2022/03/19 01:43:12;;;;;;;;;;;;;;;;;;4982347;28;1906;-69
2022/03/19 01:45:38;;;;;;;;;;;;;;;;;;4983004;28;1915;-69
2022/03/19 01:48:03;;;;;;;;;;;;;;;;;;4982773;28;1541;-69
2022/03/19 01:50:29;;;;;;;;;;;;;;;;;;4983936;28;1730;-69
2022/03/19 01:52:54;;;;;;;;;;;;;;;;;;4984507;28;1307;-69
2022/03/19 01:55:22;;;;;;;;;;;;;;;;;;4980837;28;1563;-69
2022/03/19 01:57:48;;;;;;;;;;;;;;;;;;4982888;28;1503;-69
2022/03/19 02:00:16;;;;;;;;;;;;;;;;;;4981124;28;1515;-68
2022/03/19 02:02:42;;;;;;;;;;;;;;;;;;4982863;28;1965;-68
2022/03/19 02:05:10;;;;;;;;;;;;;;;;;;4983410;28;1463;-69
2022/03/19 02:07:36;;;;;;;;;;;;;;;;;;4983203;28;1534;-67
2022/03/19 02:10:01;;;;;;;;;;;;;;;;;;4980729;28;1538;-68
2022/03/19 02:12:27;;;;;;;;;;;;;;;;;;4983106;28;1566;-67
2022/03/19 02:14:52;;;;;;;;;;;;;;;;;;4983120;28;1531;-68
2022/03/19 02:17:18;;;;;;;;;;;;;;;;;;4982047;28;1523;-68
2022/03/19 02:19:50;;;;;;;;;;;;;;;;;;4982800;28;1511;-68
2022/03/19 02:22:16;;;;;;;;;;;;;;;;;;4981826;28;1902;-68
2022/03/19 02:27:25;;;;;;;;;;;;;;;;;;4981900;28;1567;-68
2022/03/19 02:29:51;;;;;;;;;;;;;;;;;;4981254;28;1562;-68
2022/03/19 02:32:17;;;;;;;;;;;;;;;;;;4982870;28;1582;-68
2022/03/19 02:34:42;;;;;;;;;;;;;;;;;;4983064;28;1222;-68
2022/03/19 02:37:07;;;;;;;;;;;;;;;;;;4981310;28;1533;-68
2022/03/19 02:39:33;;;;;;;;;;;;;;;;;;4981391;28;1562;-69
2022/03/19 02:42:03;;;;;;;;;;;;;;;;;;4983045;28;1977;-68
2022/03/19 02:44:28;;;;;;;;;;;;;;;;;;4982250;28;1530;-69
2022/03/19 02:46:55;;;;;;;;;;;;;;;;;;4982599;28;1260;-68
2022/03/19 02:49:21;;;;;;;;;;;;;;;;;;4981487;28;1534;-69
2022/03/19 02:51:48;;;;;;;;;;;;;;;;;;4982645;28;1484;-69
2022/03/19 02:54:14;;;;;;;;;;;;;;;;;;4982773;28;1590;-69
2022/03/19 02:56:40;;;;;;;;;;;;;;;;;;4981516;28;1546;-69
2022/03/19 02:59:09;;;;;;;;;;;;;;;;;;4982558;28;1538;-69
2022/03/19 03:01:34;;;;;;;;;;;;;;;;;;4982537;28;1902;-66
2022/03/19 03:04:00;;;;;;;;;;;;;;;;;;4982569;28;1491;-69
2022/03/19 03:06:25;;;;;;;;;;;;;;;;;;4982051;28;1551;-69
2022/03/19 03:08:50;;;;;;;;;;;;;;;;;;4982588;28;1883;-66
2022/03/19 03:11:17;;;;;;;;;;;;;;;;;;4981436;28;1502;-67
2022/03/19 03:13:42;;;;;;;;;;;;;;;;;;4982579;28;1434;-67
2022/03/19 03:16:07;;;;;;;;;;;;;;;;;;4981582;28;1491;-67
2022/03/19 03:18:33;;;;;;;;;;;;;;;;;;4978391;28;1619;-68
2022/03/19 03:20:59;;;;;;;;;;;;;;;;;;4982368;28;1565;-68
2022/03/19 03:23:26;;;;;;;;;;;;;;;;;;4981578;28;1975;-67
2022/03/19 03:25:51;;;;;;;;;;;;;;;;;;4981802;28;1511;-67
2022/03/19 03:28:16;;;;;;;;;;;;;;;;;;4981706;28;1567;-67
2022/03/19 03:30:42;;;;;;;;;;;;;;;;;;4982956;28;1495;-68
2022/03/19 03:33:07;;;;;;;;;;;;;;;;;;4981757;28;1452;-67
2022/03/19 03:35:32;;;;;;;;;;;;;;;;;;4980776;28;1571;-68
2022/03/19 03:37:57;;;;;;;;;;;;;;;;;;4979898;28;1562;-68
2022/03/19 03:40:23;;;;;;;;;;;;;;;;;;4981715;28;1526;-68
2022/03/19 03:42:48;;;;;;;;;;;;;;;;;;4981612;28;1898;-67
2022/03/19 03:45:13;;;;;;;;;;;;;;;;;;4979156;28;1517;-68
2022/03/19 03:47:38;;;;;;;;;;;;;;;;;;4981115;28;1593;-69
2022/03/19 03:50:04;;;;;;;;;;;;;;;;;;4980432;28;1551;-68
2022/03/19 03:52:30;;;;;;;;;;;;;;;;;;4981276;28;1539;-69
2022/03/19 03:54:55;;;;;;;;;;;;;;;;;;4980882;28;1492;-69
2022/03/19 03:57:21;;;;;;;;;;;;;;;;;;4979536;28;1550;-69
2022/03/19 03:59:46;;;;;;;;;;;;;;;;;;4981364;28;1239;-70
2022/03/19 04:02:11;;;;;;;;;;;;;;;;;;4980477;28;2282;-70
2022/03/19 04:04:36;;;;;;;;;;;;;;;;;;4981065;28;1492;-69
2022/03/19 04:07:02;;;;;;;;;;;;;;;;;;4978312;28;1527;-69
2022/03/19 04:09:27;;;;;;;;;;;;;;;;;;4980360;28;1574;-69
2022/03/19 04:11:52;;;;;;;;;;;;;;;;;;4980853;28;1523;-68
2022/03/19 04:14:17;;;;;;;;;;;;;;;;;;4979388;28;1538;-69
2022/03/19 04:16:43;;;;;;;;;;;;;;;;;;4980240;28;1593;-69
2022/03/19 04:19:08;;;;;;;;;;;;;;;;;;4980512;28;1510;-69
2022/03/19 04:21:33;;;;;;;;;;;;;;;;;;4981857;28;1946;-69
2022/03/19 04:23:59;;;;;;;;;;;;;;;;;;4981782;28;1324;-69
2022/03/19 04:26:24;;;;;;;;;;;;;;;;;;4980135;28;1518;-69
2022/03/19 04:28:49;;;;;;;;;;;;;;;;;;4980459;28;1261;-69
2022/03/19 04:31:14;;;;;;;;;;;;;;;;;;4979917;28;1598;-70
2022/03/19 04:33:39;;;;;;;;;;;;;;;;;;4978638;28;1619;-70
2022/03/19 04:38:48;;;;;;;;;;;;;;;;;;4980070;28;1503;-70
2022/03/19 04:41:14;;;;;;;;;;;;;;;;;;4979345;28;1468;-70
2022/03/19 04:43:39;;;;;;;;;;;;;;;;;;4980042;28;1968;-70
2022/03/19 04:46:04;;;;;;;;;;;;;;;;;;4979174;28;1597;-69
2022/03/19 04:48:30;;;;;;;;;;;;;;;;;;4979687;28;1555;-69
2022/03/19 04:50:55;;;;;;;;;;;;;;;;;;4981079;28;1315;-69
2022/03/19 04:53:20;;;;;;;;;;;;;;;;;;4979673;28;1645;-68
2022/03/19 04:55:47;;;;;;;;;;;;;;;;;;4980349;28;1283;-69
2022/03/19 04:58:13;;;;;;;;;;;;;;;;;;4980030;28;1535;-68
2022/03/19 05:00:38;;;;;;;;;;;;;;;;;;4979628;28;1467;-69
2022/03/19 05:03:04;;;;;;;;;;;;;;;;;;4980296;28;1898;-70
2022/03/19 05:05:29;;;;;;;;;;;;;;;;;;4978228;28;1531;-68
2022/03/19 05:07:55;;;;;;;;;;;;;;;;;;4979992;28;1555;-68
2022/03/19 05:13:04;;;;;;;;;;;;;;;;;;4980045;28;1531;-68
2022/03/19 05:15:30;;;;;;;;;;;;;;;;;;4976807;28;1585;-68
2022/03/19 05:17:55;;;;;;;;;;;;;;;;;;4979917;28;1658;-68
2022/03/19 05:20:21;;;;;;;;;;;;;;;;;;4980865;28;1341;-68
2022/03/19 05:22:46;;;;;;;;;;;;;;;;;;4980197;28;1902;-68
2022/03/19 05:25:11;;;;;;;;;;;;;;;;;;4980050;28;1272;-68
2022/03/19 05:27:37;;;;;;;;;;;;;;;;;;4980236;28;1336;-69
2022/03/19 05:30:02;;;;;;;;;;;;;;;;;;4980488;28;1437;-68
2022/03/19 05:32:27;;;;;;;;;;;;;;;;;;4979786;28;1585;-68
2022/03/19 05:34:54;;;;;;;;;;;;;;;;;;4980080;28;1574;-68
2022/03/19 05:37:19;;;;;;;;;;;;;;;;;;4978895;28;1589;-68
2022/03/19 05:39:45;;;;;;;;;;;;;;;;;;4980225;28;1256;-68
2022/03/19 05:42:11;;;;;;;;;;;;;;;;;;4979245;28;1906;-68
2022/03/19 05:44:37;;;;;;;;;;;;;;;;;;4978512;28;1507;-68
2022/03/19 05:47:02;;;;;;;;;;;;;;;;;;4979590;28;1574;-68
2022/03/19 05:49:28;;;;;;;;;;;;;;;;;;4979076;28;1586;-68
2022/03/19 05:51:54;;;;;;;;;;;;;;;;;;4977827;28;1542;-68
2022/03/19 05:54:19;;;;;;;;;;;;;;;;;;4980939;28;1201;-69
2022/03/19 05:56:44;;;;;;;;;;;;;;;;;;4979117;28;1514;-68
2022/03/19 05:59:09;;;;;;;;;;;;;;;;;;4981892;28;1507;-68
2022/03/19 06:01:35;;;;;;;;;;;;;;;;;;4982982;28;1898;-68
2022/03/19 06:04:00;;;;;;;;;;;;;;;;;;4983693;28;1248;-68
2022/03/19 06:06:26;;;;;;;;;;;;;;;;;;4981946;28;1531;-68
2022/03/19 06:08:52;;;;;;;;;;;;;;;;;;4983309;28;1169;-69
2022/03/19 06:11:17;;;;;;;;;;;;;;;;;;4984115;28;1208;-68
2022/03/19 06:13:43;;;;;;;;;;;;;;;;;;4982825;28;1538;-68
2022/03/19 06:16:08;;;;;;;;;;;;;;;;;;4981009;28;1613;-69
2022/03/19 06:18:33;;;;;;;;;;;;;;;;;;4983025;28;1483;-67
2022/03/19 06:20:58;;;;;;;;;;;;;;;;;;4983338;28;1327;-68
2022/03/19 06:23:24;;;;;;;;;;;;;;;;;;4982442;28;1890;-68
2022/03/19 06:25:49;;;;;;;;;;;;;;;;;;4983238;28;1255;-68
2022/03/19 06:28:15;;;;;;;;;;;;;;;;;;4981779;28;1622;-67
2022/03/19 06:30:41;;;;;;;;;;;;;;;;;;4981918;28;1556;-68
2022/03/19 06:33:06;;;;;;;;;;;;;;;;;;4981572;28;1559;-68
2022/03/19 06:38:16;;;;;;;;;;;;;;;;;;4983042;28;1503;-69
2022/03/19 06:40:41;;;;;;;;;;;;;;;;;;4982484;28;1590;-70
2022/03/19 06:43:06;;;;;;;;;;;;;;;;;;4981531;28;1959;-69
2022/03/19 06:45:31;;;;;;;;;;;;;;;;;;4982727;28;1339;-70
2022/03/19 06:47:57;;;;;;;;;;;;;;;;;;4979980;28;1542;-69
2022/03/19 06:50:22;;;;;;;;;;;;;;;;;;4982321;28;1483;-69
2022/03/19 06:52:47;;;;;;;;;;;;;;;;;;4982775;28;1403;-69
2022/03/19 06:55:12;;;;;;;;;;;;;;;;;;4981815;28;1531;-69
2022/03/19 06:57:37;;;;;;;;;;;;;;;;;;4983187;28;1996;-69
2022/03/19 07:00:03;;;;;;;;;;;;;;;;;;4981552;28;1597;-69
2022/03/19 07:02:29;;;;;;;;;;;;;;;;;;4982100;28;1965;-69
2022/03/19 07:04:54;;;;;;;;;;;;;;;;;;4982898;28;1098;-69
2022/03/19 07:07:19;;;;;;;;;;;;;;;;;;4982120;28;1515;-69
2022/03/19 07:09:44;;;;;;;;;;;;;;;;;;4980873;28;1525;-69
2022/03/19 07:12:13;;;;;;;;;;;;;;;;;;4979974;28;1585;-70
2022/03/19 07:14:39;;;;;;;;;;;;;;;;;;4982389;28;1249;-69
2022/03/19 07:17:04;;;;;;;;;;;;;;;;;;4980944;28;1593;-69
2022/03/19 07:19:29;;;;;;;;;;;;;;;;;;4978305;28;1625;-69
2022/03/19 07:21:55;;;;;;;;;;;;;;;;;;4980169;28;1882;-70
2022/03/19 07:24:20;;;;;;;;;;;;;;;;;;4981046;28;1535;-70
2022/03/19 07:26:45;;;;;;;;;;;;;;;;;;4980597;28;1530;-69
2022/03/19 07:29:13;;;;;;;;;;;;;;;;;;4980051;28;1542;-69
2022/03/19 07:31:39;;;;;;;;;;;;;;;;;;4980508;28;1526;-69
2022/03/19 07:34:04;;;;;;;;;;;;;;;;;;4980951;28;1769;-69
2022/03/19 07:36:31;;;;;;;;;;;;;;;;;;4981236;28;1554;-69
2022/03/19 07:38:56;;;;;;;;;;;;;;;;;;4981035;28;1614;-69
2022/03/19 07:44:05;;;;;;;;;;;;;;;;;;4980417;28;1610;-69
2022/03/19 07:46:30;;;;;;;;;;;;;;;;;;4981293;28;1449;-70
2022/03/19 07:48:55;;;;;;;;;;;;;;;;;;4980500;28;1534;-69
2022/03/19 07:51:21;;;;;;;;;;;;;;;;;;4981976;28;1411;-69
2022/03/19 07:53:46;;;;;;;;;;;;;;;;;;4979373;28;1582;-69
2022/03/19 07:56:11;;;;;;;;;;;;;;;;;;4981368;28;1320;-69
2022/03/19 07:58:36;;;;;;;;;;;;;;;;;;4980492;28;1503;-69
2022/03/19 08:01:01;;;;;;;;;;;;;;;;;;4980651;28;1503;-69
2022/03/19 08:03:27;;;;;;;;;;;;;;;;;;4979987;28;1959;-69
2022/03/19 08:05:52;;;;;;;;;;;;;;;;;;4981445;28;1347;-70
2022/03/19 08:08:17;;;;;;;;;;;;;;;;;;4980899;28;1519;-70
2022/03/19 08:10:43;;;;;;;;;;;;;;;;;;4981264;28;1422;-69
2022/03/19 08:13:08;;;;;;;;;;;;;;;;;;4979747;28;1495;-72
2022/03/19 08:15:34;;;;;;;;;;;;;;;;;;4980848;28;1653;-69
2022/03/19 08:17:59;;;;;;;;;;;;;;;;;;4980338;28;1673;-71
2022/03/19 08:20:25;;;;;;;;;;;;;;;;;;4979535;28;1535;-71
2022/03/19 08:22:50;;;;;;;;;;;;;;;;;;4980940;28;1890;-71
2022/03/19 08:25:16;;;;;;;;;;;;;;;;;;4980882;28;1267;-70
2022/03/19 08:27:41;;;;;;;;;;;;;;;;;;4980294;28;1558;-70
2022/03/19 08:30:07;;;;;;;;;;;;;;;;;;4979185;28;1603;-68
2022/03/19 08:32:32;;;;;;;;;;;;;;;;;;4976626;28;1872;-70
2022/03/19 08:34:57;;;;;;;;;;;;;;;;;;4974140;28;1630;-70
2022/03/19 08:37:22;;;;;;;;;;;;;;;;;;4978411;28;1705;-70
2022/03/19 08:42:35;;;;;;;;;;;;;;;;;;4980562;28;1898;-70
2022/03/19 08:45:01;;;;;;;;;;;;;;;;;;4980338;28;1594;-71
2022/03/19 08:47:26;;;;;;;;;;;;;;;;;;4979478;28;1543;-70
2022/03/19 08:49:51;;;;;;;;;;;;;;;;;;4979360;28;1555;-70
2022/03/19 08:52:16;;;;;;;;;;;;;;;;;;4979030;28;1571;-70
2022/03/19 08:54:42;;;;;;;;;;;;;;;;;;4979956;28;1558;-70
2022/03/19 08:57:07;;;;;;;;;;;;;;;;;;4979447;28;1503;-71
2022/03/19 08:59:32;;;;;;;;;;;;;;;;;;4980482;28;1367;-70
2022/03/19 09:01:58;;;;;;;;;;;;;;;;;;4977681;28;1967;-71
2022/03/19 09:04:24;;;;;;;;;;;;;;;;;;4978389;28;1593;-71
2022/03/19 09:06:49;;;;;;;;;;;;;;;;;;4979385;28;1598;-71
2022/03/19 09:09:17;;;;;;;;;;;;;;;;;;4979095;28;1515;-70
2022/03/19 09:11:42;;;;;;;;;;;;;;;;;;4978008;28;1717;-71
2022/03/19 09:14:07;;;;;;;;;;;;;;;;;;4979189;28;1538;-71
2022/03/19 09:16:33;;;;;;;;;;;;;;;;;;4977672;28;1536;-70
2022/03/19 09:18:58;;;;;;;;;;;;;;;;;;4980145;28;1724;-70
2022/03/19 09:21:24;;;;;;;;;;;;;;;;;;4978360;28;1559;-69
2022/03/19 09:23:49;;;;;;;;;;;;;;;;;;4978979;28;1898;-70
2022/03/19 09:26:18;;;;;;;;;;;;;;;;;;4979876;28;2003;-70
2022/03/19 09:28:43;;;;;;;;;;;;;;;;;;4978511;28;1602;-70
2022/03/19 09:31:09;;;;;;;;;;;;;;;;;;4978101;28;1594;-70
2022/03/19 09:33:34;;;;;;;;;;;;;;;;;;4980483;28;1765;-70
2022/03/19 09:36:01;;;;;;;;;;;;;;;;;;4981832;28;1535;-69
2022/03/19 09:38:27;;;;;;;;;;;;;;;;;;4983435;28;1265;-68
2022/03/19 09:40:52;;;;;;;;;;;;;;;;;;4981927;28;1515;-70
2022/03/19 09:43:17;;;;;;;;;;;;;;;;;;4980270;28;1969;-70
2022/03/19 09:45:42;;;;;;;;;;;;;;;;;;4982798;28;1364;-71
2022/03/19 09:48:07;;;;;;;;;;;;;;;;;;4983039;28;1507;-71
2022/03/19 09:50:35;;;;;;;;;;;;;;;;;;4981735;28;1562;-71
2022/03/19 09:53:02;;;;;;;;;;;;;;;;;;4982397;28;1609;-71
2022/03/19 09:55:29;;;;;;;;;;;;;;;;;;4981218;28;1512;-70
2022/03/19 09:57:54;;;;;;;;;;;;;;;;;;4982702;28;1225;-70
2022/03/19 10:00:22;;;;;;;;;;;;;;;;;;4982426;28;1526;-69
2022/03/19 10:02:53;;;;;;;;;;;;;;;;;;4980770;28;2025;-69
2022/03/19 10:10:46;;;;;;;;;;;;;;;;;;4981052;28;1582;-69
2022/03/19 10:13:11;;;;;;;;;;;;;;;;;;4981306;28;1595;-69
2022/03/19 10:15:41;;;;;;;;;;;;;;;;;;4982415;28;1901;-68
2022/03/19 10:18:07;;;;;;;;;;;;;;;;;;4980694;28;1634;-69
2022/03/19 10:20:34;;;;;;;;;;;;;;;;;;4981819;28;1332;-69
2022/03/19 10:22:59;;;;;;;;;;;;;;;;;;4979144;28;1898;-69
2022/03/19 10:25:25;;;;;;;;;;;;;;;;;;4982602;28;1264;-69
2022/03/19 10:27:50;;;;;;;;;;;;;;;;;;4982566;28;1398;-68
2022/03/19 10:30:23;;;;;;;;;;;;;;;;;;4981935;28;1656;-70
2022/03/19 10:32:51;;;;;;;;;;;;;;;;;;4980942;28;1606;-69
2022/03/19 10:35:23;;;;;;;;;;;;;;;;;;4981768;28;1284;-69
2022/03/19 10:37:48;;;;;;;;;;;;;;;;;;4980248;28;1712;-69
2022/03/19 10:40:13;;;;;;;;;;;;;;;;;;4980824;28;1675;-69
2022/03/19 10:42:40;;;;;;;;;;;;;;;;;;4981005;28;1898;-69
2022/03/19 10:45:09;;;;;;;;;;;;;;;;;;4980115;28;1542;-69
2022/03/19 10:47:42;;;;;;;;;;;;;;;;;;4981135;28;1562;-69
2022/03/19 10:50:07;;;;;;;;;;;;;;;;;;4980378;28;1582;-69
2022/03/19 10:52:33;;;;;;;;;;;;;;;;;;4981877;28;1602;-69
2022/03/19 10:55:03;;;;;;;;;;;;;;;;;;4981382;28;1511;-69
2022/03/19 10:57:28;;;;;;;;;;;;;;;;;;4980402;28;1479;-69
2022/03/19 10:59:54;;;;;;;;;;;;;;;;;;4980857;28;1555;-69
2022/03/19 11:02:19;;;;;;;;;;;;;;;;;;4981896;28;1949;-69
2022/03/19 11:04:46;;;;;;;;;;;;;;;;;;4981183;28;1542;-69
2022/03/19 11:07:12;;;;;;;;;;;;;;;;;;4981436;28;1567;-70
2022/03/19 11:09:38;;;;;;;;;;;;;;;;;;4981429;28;1519;-69
2022/03/19 11:12:07;;;;;;;;;;;;;;;;;;4980418;28;1586;-70
2022/03/19 11:14:33;;;;;;;;;;;;;;;;;;4981416;28;1535;-69
2022/03/19 11:19:48;;;;;;;;;;;;;;;;;;4981089;28;1507;-69
2022/03/19 11:22:13;;;;;;;;;;;;;;;;;;4980519;28;1949;-69
2022/03/19 11:24:43;;;;;;;;;;;;;;;;;;4980570;28;1487;-70
2022/03/19 11:27:09;;;;;;;;;;;;;;;;;;4980938;28;1554;-69
2022/03/19 11:29:34;;;;;;;;;;;;;;;;;;4982117;28;1288;-69
2022/03/19 11:32:01;;;;;;;;;;;;;;;;;;4980150;28;1522;-70
2022/03/19 11:34:41;;;;;;;;;;;;;;;;;;4980496;28;1528;-70
2022/03/19 11:37:06;;;;;;;;;;;;;;;;;;4980410;28;1487;-71
2022/03/19 11:39:31;;;;;;;;;;;;;;;;;;4980273;28;1601;-70
2022/03/19 11:41:56;;;;;;;;;;;;;;;;;;4980431;28;1965;-71
2022/03/19 11:44:23;;;;;;;;;;;;;;;;;;4981448;28;1268;-72
2022/03/19 11:47:04;;;;;;;;;;;;;;;;;;4980469;28;1467;-70
2022/03/19 11:50:00;;;;;;;;;;;;;;;;;;4979492;28;1498;-72
2022/03/19 11:52:26;;;;;;;;;;;;;;;;;;4979707;28;1951;-72
2022/03/19 11:55:03;;;;;;;;;;;;;;;;;;4981212;28;1692;-72
2022/03/19 11:57:46;;;;;;;;;;;;;;;;;;4978945;28;1559;-70
2022/03/19 12:00:19;;;;;;;;;;;;;;;;;;4980910;28;1539;-69
2022/03/19 12:03:02;;;;;;;;;;;;;;;;;;4979720;28;1896;-70
2022/03/19 12:05:27;;;;;;;;;;;;;;;;;;4980257;28;1450;-70
2022/03/19 12:07:54;;;;;;;;;;;;;;;;;;4980877;28;1569;-70
2022/03/19 12:10:20;;;;;;;;;;;;;;;;;;4980213;28;1615;-70
2022/03/19 12:12:46;;;;;;;;;;;;;;;;;;4979574;28;1699;-70
2022/03/19 12:15:29;;;;;;;;;;;;;;;;;;4980116;28;1574;-70
2022/03/19 12:18:15;;;;;;;;;;;;;;;;;;4980227;28;1574;-70
2022/03/19 12:20:43;;;;;;;;;;;;;;;;;;4980605;28;1326;-69
2022/03/19 12:23:08;;;;;;;;;;;;;;;;;;4979847;28;1902;-70
2022/03/19 12:25:39;;;;;;;;;;;;;;;;;;4979993;28;1545;-70
2022/03/19 12:28:05;;;;;;;;;;;;;;;;;;4978509;28;1570;-70
2022/03/19 12:30:31;;;;;;;;;;;;;;;;;;4981007;28;1566;-70
2022/03/19 12:32:57;;;;;;;;;;;;;;;;;;4980136;28;1589;-70
2022/03/19 12:35:22;;;;;;;;;;;;;;;;;;4980155;28;1618;-69
2022/03/19 12:37:54;;;;;;;;;;;;;;;;;;4980129;28;1428;-70
2022/03/19 12:40:24;;;;;;;;;;;;;;;;;;4980373;28;1293;-69
2022/03/19 12:42:50;;;;;;;;;;;;;;;;;;4979835;28;1962;-70
2022/03/19 12:45:15;;;;;;;;;;;;;;;;;;4980826;28;1272;-70
2022/03/19 12:47:40;;;;;;;;;;;;;;;;;;4979910;28;1531;-70
2022/03/19 12:50:05;;;;;;;;;;;;;;;;;;4980637;28;1288;-69
2022/03/19 12:52:33;;;;;;;;;;;;;;;;;;4979914;28;1554;-70
2022/03/19 12:55:00;;;;;;;;;;;;;;;;;;4979820;28;1673;-69
2022/03/19 12:57:25;;;;;;;;;;;;;;;;;;4978013;28;1598;-69
2022/03/19 12:59:55;;;;;;;;;;;;;;;;;;4980945;28;1252;-69
2022/03/19 13:02:20;;;;;;;;;;;;;;;;;;4977986;28;1894;-69
2022/03/19 13:04:46;;;;;;;;;;;;;;;;;;4979703;28;1514;-69
2022/03/19 13:07:15;;;;;;;;;;;;;;;;;;4977375;28;1610;-69
2022/03/19 13:09:41;;;;;;;;;;;;;;;;;;4980491;28;1546;-69
2022/03/19 13:12:07;;;;;;;;;;;;;;;;;;4977045;28;1602;-69
2022/03/19 13:14:33;;;;;;;;;;;;;;;;;;4978426;28;1519;-69
2022/03/19 13:16:58;;;;;;;;;;;;;;;;;;4977746;28;1585;-69
2022/03/19 13:19:25;;;;;;;;;;;;;;;;;;4978951;28;1578;-69
2022/03/19 13:21:52;;;;;;;;;;;;;;;;;;4979394;28;1933;-69
2022/03/19 13:24:18;;;;;;;;;;;;;;;;;;4979020;28;1519;-69
2022/03/19 13:26:44;;;;;;;;;;;;;;;;;;4976179;28;1512;-69
2022/03/19 13:29:11;;;;;;;;;;;;;;;;;;4979563;28;1685;-69
2022/03/19 13:31:36;;;;;;;;;;;;;;;;;;4978276;28;1531;-69
2022/03/19 13:34:02;;;;;;;;;;;;;;;;;;4979484;28;1554;-69
2022/03/19 13:36:29;;;;;;;;;;;;;;;;;;4978095;28;1577;-69
2022/03/19 13:38:54;;;;;;;;;;;;;;;;;;4980756;28;1329;-69
2022/03/19 13:41:19;;;;;;;;;;;;;;;;;;4979541;28;1598;-69
2022/03/19 13:43:45;;;;;;;;;;;;;;;;;;4979228;28;1946;-69
2022/03/19 13:46:14;;;;;;;;;;;;;;;;;;4978155;28;1609;-69
2022/03/19 13:48:39;;;;;;;;;;;;;;;;;;4979764;28;1546;-72
2022/03/19 13:51:05;;;;;;;;;;;;;;;;;;4978703;28;1523;-72
2022/03/19 13:53:59;;;;;;;;;;;;;;;;;;4979416;28;1630;-71
2022/03/19 13:56:26;;;;;;;;;;;;;;;;;;4972538;28;1582;-72
2022/03/19 13:59:10;;;;;;;;;;;;;;;;;;4977576;28;1507;-72
2022/03/19 14:01:35;;;;;;;;;;;;;;;;;;4979963;28;1237;-72
2022/03/19 14:04:00;;;;;;;;;;;;;;;;;;4979526;28;1910;-71
2022/03/19 14:06:35;;;;;;;;;;;;;;;;;;4977237;28;1534;-71
2022/03/19 14:09:00;;;;;;;;;;;;;;;;;;4977682;28;1515;-71
2022/03/19 14:11:36;;;;;;;;;;;;;;;;;;4978379;28;1463;-71
2022/03/19 14:14:01;;;;;;;;;;;;;;;;;;4977269;28;1577;-71
2022/03/19 14:16:26;;;;;;;;;;;;;;;;;;4978221;28;1515;-71
2022/03/19 14:18:57;;;;;;;;;;;;;;;;;;4978954;28;1530;-71
2022/03/19 14:21:22;;;;;;;;;;;;;;;;;;4982414;28;1483;-71
2022/03/19 14:23:47;;;;;;;;;;;;;;;;;;4982844;28;1937;-71
2022/03/19 14:26:15;;;;;;;;;;;;;;;;;;4980549;28;1583;-72
2022/03/19 14:28:40;;;;;;;;;;;;;;;;;;4980298;28;1502;-71
2022/03/19 14:31:06;;;;;;;;;;;;;;;;;;4981948;28;1531;-71
2022/03/19 14:33:31;;;;;;;;;;;;;;;;;;4981632;28;1745;-71
2022/03/19 14:36:02;;;;;;;;;;;;;;;;;;4982014;28;1559;-71
2022/03/19 14:38:32;;;;;;;;;;;;;;;;;;4979744;28;1519;-72
2022/03/19 14:40:58;;;;;;;;;;;;;;;;;;4982690;28;1289;-72
2022/03/19 14:43:24;;;;;;;;;;;;;;;;;;4981471;28;1898;-72
2022/03/19 14:45:51;;;;;;;;;;;;;;;;;;4982007;28;1308;-72
2022/03/19 14:48:17;;;;;;;;;;;;;;;;;;4980600;28;1541;-75
2022/03/19 14:50:43;;;;;;;;;;;;;;;;;;4982504;28;1410;-72
2022/03/19 14:53:08;;;;;;;;;;;;;;;;;;4980527;28;1641;-73
2022/03/19 14:55:34;;;;;;;;;;;;;;;;;;4982085;28;1511;-72
2022/03/19 14:57:59;;;;;;;;;;;;;;;;;;4980521;28;1562;-72
2022/03/19 15:00:25;;;;;;;;;;;;;;;;;;4981794;28;1330;-72
2022/03/19 15:02:50;;;;;;;;;;;;;;;;;;4982325;28;1902;-72
2022/03/19 15:05:15;;;;;;;;;;;;;;;;;;4982639;28;1244;-72
2022/03/19 15:07:41;;;;;;;;;;;;;;;;;;4982535;28;1202;-72
2022/03/19 15:10:06;;;;;;;;;;;;;;;;;;4982304;28;1190;-72
2022/03/19 15:12:31;;;;;;;;;;;;;;;;;;4980222;28;1629;-72
2022/03/19 15:14:57;;;;;;;;;;;;;;;;;;4982072;28;1125;-72
2022/03/19 15:17:24;;;;;;;;;;;;;;;;;;4982217;28;1244;-73
2022/03/19 15:19:49;;;;;;;;;;;;;;;;;;4981930;28;1373;-72
2022/03/19 15:22:14;;;;;;;;;;;;;;;;;;4982277;28;1894;-72
2022/03/19 15:24:39;;;;;;;;;;;;;;;;;;4982034;28;1354;-72
2022/03/19 15:27:05;;;;;;;;;;;;;;;;;;4980211;28;1367;-72
2022/03/19 15:29:30;;;;;;;;;;;;;;;;;;4981466;28;1541;-72
2022/03/19 15:31:55;;;;;;;;;;;;;;;;;;4981516;28;1229;-72
2022/03/19 15:34:20;;;;;;;;;;;;;;;;;;4982051;28;1308;-72
2022/03/19 15:36:48;;;;;;;;;;;;;;;;;;4981216;28;1264;-72
2022/03/19 15:39:14;;;;;;;;;;;;;;;;;;4982896;28;1184;-72
2022/03/19 15:41:40;;;;;;;;;;;;;;;;;;4981684;28;1402;-72
2022/03/19 15:44:05;;;;;;;;;;;;;;;;;;4981481;28;1910;-72
2022/03/19 15:46:30;;;;;;;;;;;;;;;;;;4980878;28;1383;-72
2022/03/19 15:48:57;;;;;;;;;;;;;;;;;;4981349;28;1284;-73
2022/03/19 15:51:22;;;;;;;;;;;;;;;;;;4980815;28;1548;-72
2022/03/19 15:53:47;;;;;;;;;;;;;;;;;;4980551;28;1366;-72
2022/03/19 15:56:12;;;;;;;;;;;;;;;;;;4980677;28;1334;-73
2022/03/19 15:58:38;;;;;;;;;;;;;;;;;;4980654;28;1236;-72
2022/03/19 16:01:03;;;;;;;;;;;;;;;;;;4979959;28;1335;-74
2022/03/19 16:03:29;;;;;;;;;;;;;;;;;;4980932;28;1910;-72
2022/03/19 16:05:54;;;;;;;;;;;;;;;;;;4980920;28;1330;-71
2022/03/19 16:08:19;;;;;;;;;;;;;;;;;;4979294;28;1391;-73
2022/03/19 16:10:45;;;;;;;;;;;;;;;;;;4980804;28;1118;-74
2022/03/19 16:13:10;;;;;;;;;;;;;;;;;;4980699;28;1280;-74
2022/03/19 16:15:35;;;;;;;;;;;;;;;;;;4979762;28;1390;-72
2022/03/19 16:18:00;;;;;;;;;;;;;;;;;;4980261;28;1281;-73
2022/03/19 16:20:25;;;;;;;;;;;;;;;;;;4980413;28;1620;-73
2022/03/19 16:22:51;;;;;;;;;;;;;;;;;;4980800;28;1890;-72
2022/03/19 16:25:17;;;;;;;;;;;;;;;;;;4980485;28;1252;-72
2022/03/19 16:27:42;;;;;;;;;;;;;;;;;;4978559;28;1349;-72
2022/03/19 16:30:07;;;;;;;;;;;;;;;;;;4980515;28;1327;-72
2022/03/19 16:32:33;;;;;;;;;;;;;;;;;;4980471;28;1379;-72
2022/03/19 16:34:58;;;;;;;;;;;;;;;;;;4981289;28;1277;-71
2022/03/19 16:37:29;;;;;;;;;;;;;;;;;;4981102;28;1242;-71
2022/03/19 16:39:58;;;;;;;;;;;;;;;;;;4981063;28;1535;-72
2022/03/19 16:42:23;;;;;;;;;;;;;;;;;;4979912;28;1899;-71
2022/03/19 16:44:48;;;;;;;;;;;;;;;;;;4981026;28;1182;-71
2022/03/19 16:47:14;;;;;;;;;;;;;;;;;;4980406;28;1272;-71
2022/03/19 16:49:39;;;;;;;;;;;;;;;;;;4981108;28;1268;-71
2022/03/19 16:52:05;;;;;;;;;;;;;;;;;;4980250;28;1511;-72
2022/03/19 16:54:30;;;;;;;;;;;;;;;;;;4981422;28;1277;-71
2022/03/19 16:56:55;;;;;;;;;;;;;;;;;;4980672;28;1236;-71
2022/03/19 16:59:21;;;;;;;;;;;;;;;;;;4981263;28;1308;-72
2022/03/19 17:01:47;;;;;;;;;;;;;;;;;;4979859;28;1583;-72
2022/03/19 17:04:12;;;;;;;;;;;;;;;;;;4981034;28;1364;-72
2022/03/19 17:06:38;;;;;;;;;;;;;;;;;;4980999;28;1277;-72
2022/03/19 17:09:03;;;;;;;;;;;;;;;;;;4980834;28;1225;-72
2022/03/19 17:11:28;;;;;;;;;;;;;;;;;;4980647;28;1221;-71
2022/03/19 17:13:53;;;;;;;;;;;;;;;;;;4980686;28;1256;-69
2022/03/19 17:16:18;;;;;;;;;;;;;;;;;;4980866;28;1338;-70
2022/03/19 17:18:44;;;;;;;;;;;;;;;;;;4981082;28;1378;-69
2022/03/19 17:21:11;;;;;;;;;;;;;;;;;;4984405;28;1346;-70